createdAt,value
2023-04-25T00:02:20.655Z,6.10
2023-04-25T00:04:53.334Z,3.20
2023-04-25T00:07:27.270Z,2.50
2023-04-25T00:09:59.279Z,3.40
2023-04-25T00:12:31.247Z,1.90
2023-04-25T00:15:03.673Z,3.10
2023-04-25T00:17:39.583Z,2.20
2023-04-25T00:20:14.286Z,3.80
2023-04-25T00:22:46.353Z,7.50
2023-04-25T00:25:18.328Z,5.50
2023-04-25T00:27:50.372Z,4.50
2023-04-25T00:30:22.210Z,2.40
2023-04-25T00:32:54.347Z,2.70
2023-04-25T00:35:26.489Z,3.70
2023-04-25T00:37:58.927Z,3.30
2023-04-25T00:40:31.178Z,2.70
2023-04-25T00:43:03.070Z,2.00
2023-04-25T00:45:40.021Z,3.90
2023-04-25T00:48:12.190Z,2.50
2023-04-25T00:50:44.960Z,5.60
2023-04-25T00:55:48.096Z,4.40
2023-04-25T00:58:20.239Z,3.70
2023-04-25T01:00:53.913Z,5.90
2023-04-25T01:03:27.474Z,3.10
2023-04-25T01:05:59.694Z,2.50
2023-04-25T01:08:32.015Z,4.90
2023-04-25T01:11:05.567Z,2.80
2023-04-25T01:13:37.950Z,4.40
2023-04-25T01:16:10.402Z,3.30
2023-04-25T01:18:44.580Z,3.00
2023-04-25T01:21:16.793Z,2.60
2023-04-25T01:23:52.661Z,3.70
2023-04-25T01:26:26.909Z,3.80
2023-04-25T01:29:00.092Z,6.80
2023-04-25T01:31:34.278Z,2.30
2023-04-25T01:34:06.149Z,3.10
2023-04-25T01:36:39.578Z,2.70
2023-04-25T01:39:12.032Z,4.40
2023-04-25T01:41:44.477Z,3.80
2023-04-25T01:44:17.496Z,3.90
2023-04-25T01:49:20.174Z,6.70
2023-04-25T01:51:52.128Z,2.80
2023-04-25T01:54:24.480Z,4.70
2023-04-25T01:56:59.103Z,3.80
2023-04-25T01:59:31.098Z,4.80
2023-04-25T02:02:12.558Z,6.50
2023-04-25T02:04:45.110Z,5.50
2023-04-25T02:07:18.264Z,7.20
2023-04-25T02:09:55.032Z,5.30
2023-04-25T02:12:28.842Z,3.70
2023-04-25T02:15:00.843Z,2.90
2023-04-25T02:17:42.805Z,5.30
2023-04-25T02:20:17.395Z,5.20
2023-04-25T02:22:50.084Z,7.20
2023-04-25T02:27:53.701Z,4.50
2023-04-25T02:30:25.931Z,6.10
2023-04-25T02:32:58.073Z,3.30
2023-04-25T02:35:30.215Z,4.90
2023-04-25T02:38:02.159Z,6.40
2023-04-25T02:40:34.136Z,7.20
2023-04-25T02:43:05.983Z,9.50
2023-04-25T02:45:38.739Z,4.10
2023-04-25T02:50:41.287Z,4.10
2023-04-25T02:53:13.408Z,4.10
2023-04-25T02:55:50.423Z,6.20
2023-04-25T02:58:22.439Z,6.50
2023-04-25T03:00:56.850Z,7.80
2023-04-25T03:03:28.953Z,4.40
2023-04-25T03:06:00.840Z,6.60
2023-04-25T03:08:35.539Z,5.50
2023-04-25T03:11:07.704Z,4.70
2023-04-25T03:13:40.649Z,8.20
2023-04-25T03:16:13.766Z,7.10
2023-04-25T03:18:45.750Z,5.20
2023-04-25T03:21:18.316Z,7.70
2023-04-25T03:23:50.282Z,6.30
2023-04-25T03:26:22.572Z,7.50
2023-04-25T03:28:54.386Z,3.30
2023-04-25T03:31:26.987Z,7.90
2023-04-25T03:33:59.043Z,11.40
2023-04-25T03:36:31.556Z,7.70
2023-04-25T03:39:03.642Z,6.90
2023-04-25T03:41:35.900Z,9.60
2023-04-25T03:44:12.089Z,8.40
2023-04-25T03:46:44.925Z,8.10
2023-04-25T03:49:19.578Z,8.10
2023-04-25T03:52:02.674Z,8.00
2023-04-25T03:54:39.107Z,6.60
2023-04-25T03:57:23.759Z,8.40
2023-04-25T03:59:55.984Z,9.60
2023-04-25T04:02:28.466Z,10.70
2023-04-25T04:05:01.195Z,7.30
2023-04-25T04:10:09.025Z,10.20
2023-04-25T04:12:43.168Z,10.60
2023-04-25T04:15:16.116Z,8.40
2023-04-25T04:17:52.041Z,9.00
2023-04-25T04:20:24.355Z,10.90
2023-04-25T04:22:56.641Z,7.90
2023-04-25T04:25:31.362Z,10.30
2023-04-25T04:28:14.338Z,11.70
2023-04-25T04:30:54.873Z,13.40
2023-04-25T04:33:26.864Z,8.70
2023-04-25T04:36:05.321Z,8.50
2023-04-25T04:38:39.161Z,10.30
2023-04-25T04:41:13.686Z,11.20
2023-04-25T04:43:57.088Z,11.60
2023-04-25T04:46:41.948Z,15.60
2023-04-25T04:49:32.699Z,11.60
2023-04-25T04:52:24.867Z,8.20
2023-04-25T04:55:19.704Z,14.30
2023-04-25T04:58:09.174Z,11.00
2023-04-25T05:00:59.710Z,9.80
2023-04-25T05:03:55.233Z,8.70
2023-04-25T05:06:40.502Z,12.90
2023-04-25T05:09:21.263Z,10.10
2023-04-25T05:12:09.056Z,9.70
2023-04-25T05:15:13.672Z,12.10
2023-04-25T05:18:05.600Z,6.70
2023-04-25T05:20:48.004Z,12.80
2023-04-25T05:23:49.404Z,11.90
2023-04-25T05:26:42.948Z,10.70
2023-04-25T05:29:29.044Z,8.70
2023-04-25T05:32:13.943Z,12.90
2023-04-25T05:34:46.648Z,11.60
2023-04-25T05:37:28.066Z,9.50
2023-04-25T05:40:17.272Z,7.10
2023-04-25T05:43:08.204Z,7.70
2023-04-25T05:45:55.258Z,14.00
2023-04-25T05:48:58.101Z,11.20
2023-04-25T05:51:56.283Z,15.50
2023-04-25T05:54:54.538Z,9.70
2023-04-25T05:57:28.563Z,10.00
2023-04-25T06:00:01.927Z,9.20
2023-04-25T06:02:46.430Z,8.80
2023-04-25T06:05:19.952Z,8.80
2023-04-25T06:07:52.495Z,8.90
2023-04-25T06:10:24.769Z,5.30
2023-04-25T06:12:56.578Z,7.50
2023-04-25T06:15:29.113Z,9.90
2023-04-25T06:18:01.569Z,12.20
2023-04-25T06:20:33.394Z,9.80
2023-04-25T06:23:05.977Z,11.60
2023-04-25T06:26:07.074Z,15.60
2023-04-25T06:28:40.130Z,12.40
2023-04-25T06:31:12.009Z,10.70
2023-04-25T06:33:44.711Z,8.80
2023-04-25T06:36:16.661Z,13.70
2023-04-25T06:38:49.263Z,11.50
2023-04-25T06:41:21.837Z,8.30
2023-04-25T06:43:54.003Z,14.50
2023-04-25T06:46:48.731Z,16.60
2023-04-25T06:49:20.660Z,11.30
2023-04-25T06:51:52.633Z,9.80
2023-04-25T06:54:25.816Z,12.50
2023-04-25T06:57:05.377Z,9.10
2023-04-25T07:02:08.208Z,9.30
2023-04-25T07:04:40.401Z,12.00
2023-04-25T07:07:12.350Z,9.80
2023-04-25T07:09:51.042Z,10.20
2023-04-25T07:12:23.024Z,11.30
2023-04-25T07:14:54.906Z,16.40
2023-04-25T07:17:27.305Z,9.10
2023-04-25T07:19:59.157Z,9.10
2023-04-25T07:22:32.284Z,10.80
2023-04-25T07:25:07.139Z,14.30
2023-04-25T07:27:40.388Z,8.60
2023-04-25T07:30:24.407Z,8.70
2023-04-25T07:32:56.612Z,13.60
2023-04-25T07:35:28.602Z,14.50
2023-04-25T07:38:01.174Z,8.70
2023-04-25T07:40:33.749Z,12.30
2023-04-25T07:43:09.237Z,11.50
2023-04-25T07:46:00.064Z,9.10
2023-04-25T07:48:34.127Z,8.30
2023-04-25T07:53:38.564Z,8.70
2023-04-25T07:56:13.557Z,13.20
2023-04-25T07:58:46.939Z,15.50
2023-04-25T08:01:22.575Z,17.10
2023-04-25T08:04:01.669Z,9.40
2023-04-25T08:06:52.202Z,12.90
2023-04-25T08:09:28.768Z,8.80
2023-04-25T08:14:37.155Z,9.90
2023-04-25T08:17:10.234Z,13.70
2023-04-25T08:19:46.619Z,9.10
2023-04-25T08:22:25.541Z,16.70
2023-04-25T08:25:03.721Z,12.30
2023-04-25T08:27:35.810Z,9.30
2023-04-25T08:30:10.310Z,6.80
2023-04-25T08:32:42.820Z,10.50
2023-04-25T08:35:44.153Z,11.60
2023-04-25T08:38:16.768Z,9.50
2023-04-25T08:40:53.300Z,11.00
2023-04-25T08:43:27.041Z,8.20
2023-04-25T08:48:42.644Z,9.00
2023-04-25T08:51:19.056Z,15.50
2023-04-25T08:53:57.877Z,9.50
2023-04-25T08:56:36.032Z,11.60
2023-04-25T08:59:09.056Z,12.40
2023-04-25T09:01:41.723Z,9.20
2023-04-25T09:04:15.860Z,11.80
2023-04-25T09:06:47.921Z,11.40
2023-04-25T09:09:20.522Z,10.60
2023-04-25T09:11:52.789Z,12.30
2023-04-25T09:14:27.064Z,10.10
2023-04-25T09:17:08.839Z,12.30
2023-04-25T09:20:09.916Z,13.90
2023-04-25T09:22:42.287Z,8.90
2023-04-25T09:25:16.160Z,12.20
2023-04-25T09:27:56.825Z,8.80
2023-04-25T09:30:35.689Z,10.90
2023-04-25T09:33:14.671Z,13.40
2023-04-25T09:35:56.091Z,9.30
2023-04-25T09:41:13.162Z,9.00
2023-04-25T09:43:51.779Z,13.00
2023-04-25T09:46:27.327Z,9.10
2023-04-25T09:49:01.049Z,15.20
2023-04-25T09:51:39.870Z,10.00
2023-04-25T09:54:12.316Z,16.30
2023-04-25T09:56:53.547Z,10.50
2023-04-25T09:59:27.033Z,8.90
2023-04-25T10:01:59.947Z,7.90
2023-04-25T10:04:39.631Z,13.50
2023-04-25T10:07:34.369Z,8.90
2023-04-25T10:10:08.112Z,11.60
2023-04-25T10:12:41.435Z,12.10
2023-04-25T10:15:16.188Z,10.00
2023-04-25T10:17:48.754Z,9.80
2023-04-25T10:20:20.795Z,8.40
2023-04-25T10:22:57.435Z,5.20
2023-04-25T10:25:29.431Z,12.20
2023-04-25T10:28:04.549Z,10.20
2023-04-25T10:30:36.934Z,8.10
2023-04-25T10:33:20.924Z,9.30
2023-04-25T10:35:52.841Z,12.50
2023-04-25T10:38:24.672Z,9.80
2023-04-25T10:41:09.383Z,6.90
2023-04-25T10:43:43.514Z,11.70
2023-04-25T10:46:24.690Z,13.20
2023-04-25T10:48:57.545Z,10.30
2023-04-25T10:51:39.972Z,8.70
2023-04-25T10:54:26.626Z,7.10
2023-04-25T10:57:01.136Z,6.20
2023-04-25T10:59:33.055Z,11.00
2023-04-25T11:02:15.173Z,10.70
2023-04-25T11:04:48.246Z,6.10
2023-04-25T11:07:31.603Z,10.90
2023-04-25T11:10:05.988Z,19.30
2023-04-25T11:12:37.945Z,6.60
2023-04-25T11:15:13.493Z,11.00
2023-04-25T11:17:47.424Z,6.40
2023-04-25T11:20:19.791Z,5.30
2023-04-25T11:22:52.867Z,6.90
2023-04-25T11:25:27.779Z,12.00
2023-04-25T11:28:02.574Z,6.00
2023-04-25T11:30:34.437Z,5.00
2023-04-25T11:33:06.522Z,7.60
2023-04-25T11:35:38.464Z,10.70
2023-04-25T11:38:11.058Z,9.00
2023-04-25T11:40:43.915Z,5.60
2023-04-25T11:43:16.346Z,10.80
2023-04-25T11:45:52.801Z,6.70
2023-04-25T11:48:26.276Z,4.30
2023-04-25T11:50:59.007Z,5.70
2023-04-25T11:53:30.854Z,16.00
2023-04-25T11:56:03.319Z,7.10
2023-04-25T11:58:55.239Z,7.70
2023-04-25T12:01:35.174Z,11.30
2023-04-25T12:04:19.609Z,13.70
2023-04-25T12:06:53.397Z,7.60
2023-04-25T12:09:34.032Z,9.90
2023-04-25T12:12:06.697Z,10.80
2023-04-25T12:14:39.402Z,12.70
2023-04-25T12:17:12.862Z,8.70
2023-04-25T12:19:46.120Z,7.40
2023-04-25T12:22:26.308Z,6.70
2023-04-25T12:24:59.467Z,7.00
2023-04-25T12:27:33.027Z,14.90
2023-04-25T12:30:06.298Z,13.50
2023-04-25T12:32:38.798Z,8.20
2023-04-25T12:35:11.899Z,9.80
2023-04-25T12:37:43.852Z,9.10
2023-04-25T12:40:16.134Z,8.20
2023-04-25T12:42:48.152Z,16.60
2023-04-25T12:45:20.012Z,11.30
2023-04-25T12:47:52.407Z,10.20
2023-04-25T12:50:24.489Z,7.40
2023-04-25T12:52:56.472Z,8.60
2023-04-25T12:55:28.808Z,9.40
2023-04-25T12:58:00.605Z,13.10
2023-04-25T13:00:32.957Z,6.20
2023-04-25T13:03:05.690Z,5.20
2023-04-25T13:05:37.781Z,16.20
2023-04-25T13:08:09.782Z,6.90
2023-04-25T13:10:41.851Z,6.10
2023-04-25T13:13:13.630Z,9.10
2023-04-25T13:15:45.563Z,6.90
2023-04-25T13:18:17.906Z,4.10
2023-04-25T13:20:50.022Z,7.10
2023-04-25T13:23:22.637Z,6.60
2023-04-25T13:28:25.075Z,3.20
2023-04-25T13:30:57.103Z,3.00
2023-04-25T13:33:29.038Z,2.70
2023-04-25T13:36:02.581Z,4.70
2023-04-25T13:38:34.460Z,4.60
2023-04-25T13:41:08.308Z,2.30
2023-04-25T13:43:40.928Z,3.60
2023-04-25T13:46:30.127Z,6.40
2023-04-25T13:49:12.698Z,7.70
2023-04-25T13:51:45.989Z,5.40
2023-04-25T13:54:17.997Z,6.00
2023-04-25T13:56:51.521Z,5.40
2023-04-25T13:59:23.968Z,6.20
2023-04-25T14:01:56.413Z,10.20
2023-04-25T14:04:28.667Z,8.40
2023-04-25T14:07:03.367Z,7.30
2023-04-25T14:09:35.397Z,7.80
2023-04-25T14:12:08.064Z,9.90
2023-04-25T14:14:40.103Z,8.30
2023-04-25T14:17:13.265Z,8.90
2023-04-25T14:19:49.420Z,6.20
2023-04-25T14:22:23.162Z,3.90
2023-04-25T14:24:59.175Z,10.50
2023-04-25T14:27:31.306Z,7.00
2023-04-25T14:30:05.639Z,5.20
2023-04-25T14:32:38.296Z,6.90
2023-04-25T14:35:12.378Z,7.00
2023-04-25T14:37:46.318Z,8.00
2023-04-25T14:40:19.410Z,4.80
2023-04-25T14:42:53.132Z,9.30
2023-04-25T14:45:26.274Z,6.00
2023-04-25T14:50:32.285Z,4.40
2023-04-25T14:53:04.459Z,5.20
2023-04-25T14:55:36.506Z,10.20
2023-04-25T14:58:11.776Z,6.50
2023-04-25T15:00:50.313Z,8.50
2023-04-25T15:03:24.925Z,5.40
2023-04-25T15:05:59.817Z,7.10
2023-04-25T15:08:34.302Z,4.10
2023-04-25T15:11:08.977Z,7.80
2023-04-25T15:13:42.315Z,14.30
2023-04-25T15:16:16.855Z,6.80
2023-04-25T15:18:51.250Z,9.90
2023-04-25T15:21:27.754Z,7.80
2023-04-25T15:24:01.274Z,11.00
2023-04-25T15:26:34.188Z,11.50
2023-04-25T15:29:07.623Z,8.90
2023-04-25T15:31:39.780Z,9.30
2023-04-25T15:34:11.902Z,7.50
2023-04-25T15:36:44.131Z,9.10
2023-04-25T15:39:16.674Z,7.20
2023-04-25T15:41:49.538Z,9.90
2023-04-25T15:44:22.089Z,7.70
2023-04-25T15:46:55.255Z,10.00
2023-04-25T15:49:29.204Z,9.00
2023-04-25T15:52:01.421Z,13.80
2023-04-25T15:54:34.134Z,12.20
2023-04-25T15:59:36.485Z,12.30
2023-04-25T16:02:09.003Z,11.00
2023-04-25T16:04:41.536Z,20.30
2023-04-25T16:07:14.565Z,11.60
2023-04-25T16:09:46.953Z,13.50
2023-04-25T16:12:19.042Z,15.80
2023-04-25T16:14:51.571Z,8.90
2023-04-25T16:17:26.554Z,7.80
2023-04-25T16:19:59.389Z,8.60
2023-04-25T16:22:31.857Z,19.20
2023-04-25T16:25:03.894Z,16.30
2023-04-25T16:27:37.468Z,14.70
2023-04-25T16:30:14.113Z,13.50
2023-04-25T16:32:46.316Z,19.40
2023-04-25T16:35:18.292Z,15.50
2023-04-25T16:37:50.317Z,13.20
2023-04-25T16:40:24.077Z,17.80
2023-04-25T16:42:57.068Z,18.10
2023-04-25T16:48:01.576Z,13.40
2023-04-25T16:50:34.290Z,15.80
2023-04-25T16:53:06.337Z,19.30
2023-04-25T16:55:38.413Z,12.40
2023-04-25T16:58:12.417Z,14.30
2023-04-25T17:00:44.653Z,17.50
2023-04-25T17:03:16.907Z,13.70
2023-04-25T17:05:57.090Z,13.20
2023-04-25T17:08:30.158Z,14.20
2023-04-25T17:11:04.496Z,19.10
2023-04-25T17:13:37.018Z,24.80
2023-04-25T17:16:11.225Z,17.60
2023-04-25T17:18:44.051Z,13.00
2023-04-25T17:21:18.300Z,13.70
2023-04-25T17:23:50.413Z,13.30
2023-04-25T17:26:22.598Z,15.30
2023-04-25T17:28:55.369Z,16.80
2023-04-25T17:31:28.578Z,13.00
2023-04-25T17:34:00.730Z,17.90
2023-04-25T17:36:32.790Z,12.60
2023-04-25T17:39:08.333Z,15.30
2023-04-25T17:41:41.493Z,15.10
2023-04-25T17:44:13.553Z,16.60
2023-04-25T17:46:45.769Z,15.20
2023-04-25T17:49:18.065Z,16.70
2023-04-25T17:51:50.101Z,18.50
2023-04-25T17:54:22.896Z,17.70
2023-04-25T17:56:55.624Z,23.40
2023-04-25T17:59:28.102Z,24.90
2023-04-25T18:02:00.941Z,17.70
2023-04-25T18:04:38.408Z,18.80
2023-04-25T18:07:11.118Z,22.00
2023-04-25T18:09:43.172Z,17.60
2023-04-25T18:12:16.346Z,18.50
2023-04-25T18:14:48.193Z,18.90
2023-04-25T18:17:25.693Z,30.40
2023-04-25T18:19:57.701Z,15.90
2023-04-25T18:22:30.056Z,17.20
2023-04-25T18:25:04.571Z,16.30
2023-04-25T18:27:41.223Z,16.50
2023-04-25T18:30:14.700Z,21.70
2023-04-25T18:32:47.316Z,16.40
2023-04-25T18:35:19.438Z,17.30
2023-04-25T18:37:51.387Z,24.90
2023-04-25T18:40:23.334Z,14.90
2023-04-25T18:42:56.050Z,11.40
2023-04-25T18:45:28.613Z,11.30
2023-04-25T18:48:02.506Z,14.80
2023-04-25T18:50:35.693Z,14.70
2023-04-25T18:53:08.116Z,12.90
2023-04-25T18:55:41.931Z,19.90
2023-04-25T18:58:14.957Z,16.20
2023-04-25T19:00:49.185Z,18.40
2023-04-25T19:03:23.095Z,16.70
2023-04-25T19:05:56.340Z,17.90
2023-04-25T19:08:28.664Z,14.80
2023-04-25T19:11:07.668Z,16.90
2023-04-25T19:13:46.336Z,15.90
2023-04-25T19:16:19.658Z,16.50
2023-04-25T19:18:52.816Z,18.50
2023-04-25T19:21:27.484Z,12.00
2023-04-25T19:24:01.539Z,13.30
2023-04-25T19:26:33.774Z,17.30
2023-04-25T19:29:14.587Z,19.30
2023-04-25T19:31:47.518Z,18.10
2023-04-25T19:36:54.381Z,23.70
2023-04-25T19:39:27.245Z,16.70
2023-04-25T19:42:03.397Z,14.40
2023-04-25T19:44:39.929Z,15.60
2023-04-25T19:47:14.864Z,13.60
2023-04-25T19:49:48.164Z,20.20
2023-04-25T19:52:20.785Z,18.70
2023-04-25T19:57:24.457Z,14.80
2023-04-25T19:59:56.629Z,15.40
2023-04-25T20:02:29.117Z,17.10
2023-04-25T20:05:05.668Z,20.30
2023-04-25T20:07:38.569Z,12.30
2023-04-25T20:10:16.616Z,11.30
2023-04-25T20:12:49.413Z,13.00
2023-04-25T20:15:21.929Z,15.10
2023-04-25T20:17:55.792Z,15.40
2023-04-25T20:20:30.991Z,10.20
2023-04-25T20:23:03.624Z,11.20
2023-04-25T20:25:35.786Z,15.40
2023-04-25T20:28:07.972Z,8.20
2023-04-25T20:30:40.415Z,10.60
2023-04-25T20:33:13.147Z,19.70
2023-04-25T20:35:46.293Z,16.50
2023-04-25T20:38:18.678Z,14.90
2023-04-25T20:40:52.132Z,11.40
2023-04-25T20:43:25.864Z,15.30
2023-04-25T20:45:58.562Z,16.20
2023-04-25T20:48:30.838Z,14.70
2023-04-25T20:51:04.058Z,14.10
2023-04-25T20:53:36.119Z,13.60
2023-04-25T20:56:10.894Z,12.50
2023-04-25T20:58:43.003Z,15.40
2023-04-25T21:01:15.005Z,15.10
2023-04-25T21:03:49.381Z,7.90
2023-04-25T21:06:21.972Z,16.10
2023-04-25T21:08:54.893Z,14.70
2023-04-25T21:11:27.211Z,11.10
2023-04-25T21:16:34.949Z,11.10
2023-04-25T21:19:07.249Z,14.10
2023-04-25T21:21:39.792Z,17.00
2023-04-25T21:24:14.922Z,12.50
2023-04-25T21:26:46.978Z,22.50
2023-04-25T21:29:19.457Z,16.60
2023-04-25T21:34:23.206Z,20.80
2023-04-25T21:36:56.168Z,18.10
2023-04-25T21:39:28.752Z,13.30
2023-04-25T21:42:01.912Z,12.20
2023-04-25T21:44:34.319Z,21.50
2023-04-25T21:47:06.632Z,13.60
2023-04-25T21:49:41.787Z,18.40
2023-04-25T21:52:14.100Z,15.20
2023-04-25T21:54:46.096Z,10.70
2023-04-25T21:57:18.111Z,10.90
2023-04-25T21:59:50.575Z,15.60
2023-04-25T22:02:23.405Z,14.80
2023-04-25T22:04:55.723Z,16.20
2023-04-25T22:07:27.830Z,14.60
2023-04-25T22:10:00.464Z,22.00
2023-04-25T22:12:33.059Z,17.50
2023-04-25T22:15:06.117Z,12.90
2023-04-25T22:17:38.855Z,12.90
2023-04-25T22:22:50.077Z,11.60
2023-04-25T22:25:23.992Z,16.90
2023-04-25T22:27:57.363Z,17.50
2023-04-25T22:30:32.138Z,11.10
2023-04-25T22:33:04.519Z,10.80
2023-04-25T22:35:36.571Z,14.60
2023-04-25T22:38:08.658Z,12.40
2023-04-25T22:40:40.686Z,14.40
2023-04-25T22:43:12.709Z,16.40
2023-04-25T22:45:44.910Z,13.60
2023-04-25T22:48:17.246Z,9.50
2023-04-25T22:50:49.888Z,14.40
2023-04-25T22:53:21.908Z,10.10
2023-04-25T22:55:59.357Z,12.30
2023-04-25T22:58:31.936Z,17.10
2023-04-25T23:01:06.898Z,13.80
2023-04-25T23:03:40.799Z,10.90
2023-04-25T23:06:14.457Z,12.30
2023-04-25T23:08:46.848Z,13.50
2023-04-25T23:11:20.421Z,11.00
2023-04-25T23:13:52.799Z,7.90
2023-04-25T23:16:25.030Z,18.50
2023-04-25T23:18:57.421Z,11.40
2023-04-25T23:21:30.213Z,10.20
2023-04-25T23:24:03.747Z,10.60
2023-04-25T23:26:35.712Z,8.40
2023-04-25T23:29:08.560Z,12.10
2023-04-25T23:31:42.326Z,12.00
2023-04-25T23:34:14.354Z,11.80
2023-04-25T23:36:46.311Z,12.10
2023-04-25T23:39:18.929Z,7.10
2023-04-25T23:41:51.180Z,7.50
2023-04-25T23:46:54.115Z,10.70
2023-04-25T23:49:26.266Z,3.70
2023-04-25T23:51:59.207Z,10.00
2023-04-25T23:54:31.710Z,8.10
2023-04-25T23:57:04.845Z,9.40
2023-04-25T23:59:36.702Z,7.30
